If you wish to contribute or participate in the discussions about articles you are invited to join SKYbrary as a registered user

 Actions

Trabzon Airport

From SKYbrary Wiki

LTCG
Airport
ICAO: LTCG – IATA: TZX
Summary
Name Trabzon Airport
Region Europe
Territory Turkey TR.gif
Location Trabzon
Serving Trabzon
Elevation 31.699 m
104 ft
104 ft31.699 m
Coordinates 40° 59' 42.60" N, 39° 47' 19.69" E
Runways
Designator Length Width Surface ROPS
11/29 2640 m8,661.417 ft
45 m147.638 ft
ASP yes/yes


METAR
Observation LTCG 171550Z 17004KT 9999 SCT015 BKN028 08/03 Q1029 NOSIG
Station Trabzon
Date/Time 17 February 2020 15:50:00
Wind direction 170°
Wind speed 04 kts
Lowest cloud amount scattered clouds
Temperature 8°C
Dew point 3°C
Humidity 70%
QNH 1029 hPa
Weather condition n/a

Trabzon Airport is an airport near the city of Trabzon in the eastern Black Sea region of Turkey.

Maps

Terrain

Loading map...

Airport Layout

Loading map...


Accidents & Serious Incidents at or in vicinity of LTCG

None on SKYbrary